sensor_id;sensor_type;location;lat;lon;timestamp;temperature;humidity
10143;DHT22;5112;54.088;13.446;2023-06-10T00:09:48;15.00;99.90
10143;DHT22;5112;54.088;13.446;2023-06-10T00:19:52;15.00;99.90
10143;DHT22;5112;54.088;13.446;2023-06-10T00:29:54;15.00;99.90
10143;DHT22;5112;54.088;13.446;2023-06-10T00:39:57;15.00;99.90
10143;DHT22;5112;54.088;13.446;2023-06-10T00:49:59;14.90;99.90
10143;DHT22;5112;54.088;13.446;2023-06-10T01:00:03;14.90;99.90
10143;DHT22;5112;54.088;13.446;2023-06-10T01:10:12;15.00;99.90
10143;DHT22;5112;54.088;13.446;2023-06-10T01:20:17;14.90;99.90
10143;DHT22;5112;54.088;13.446;2023-06-10T01:30:20;15.00;99.90
10143;DHT22;5112;54.088;13.446;2023-06-10T01:40:30;15.00;99.90
10143;DHT22;5112;54.088;13.446;2023-06-10T01:50:33;15.00;99.90
10143;DHT22;5112;54.088;13.446;2023-06-10T02:00:35;15.10;99.90
10143;DHT22;5112;54.088;13.446;2023-06-10T02:10:38;15.10;99.90
10143;DHT22;5112;54.088;13.446;2023-06-10T02:20:41;15.00;99.90
10143;DHT22;5112;54.088;13.446;2023-06-10T02:30:44;15.10;99.90
10143;DHT22;5112;54.088;13.446;2023-06-10T02:40:47;15.10;99.90
10143;DHT22;5112;54.088;13.446;2023-06-10T02:50:50;15.20;99.90
10143;DHT22;5112;54.088;13.446;2023-06-10T03:00:52;15.20;99.90
10143;DHT22;5112;54.088;13.446;2023-06-10T03:10:55;15.10;99.90
10143;DHT22;5112;54.088;13.446;2023-06-10T03:20:56;15.20;99.90
10143;DHT22;5112;54.088;13.446;2023-06-10T03:30:59;15.20;99.90
10143;DHT22;5112;54.088;13.446;2023-06-10T03:41:01;15.20;99.90
10143;DHT22;5112;54.088;13.446;2023-06-10T03:51:04;15.30;99.90
10143;DHT22;5112;54.088;13.446;2023-06-10T04:01:06;15.30;99.90
10143;DHT22;5112;54.088;13.446;2023-06-10T04:11:09;15.50;99.90
10143;DHT22;5112;54.088;13.446;2023-06-10T04:21:10;15.60;99.90
10143;DHT22;5112;54.088;13.446;2023-06-10T04:31:13;16.00;99.90
10143;DHT22;5112;54.088;13.446;2023-06-10T04:41:15;16.60;99.90
10143;DHT22;5112;54.088;13.446;2023-06-10T04:51:18;16.90;99.90
10143;DHT22;5112;54.088;13.446;2023-06-10T05:01:20;17.20;99.90
10143;DHT22;5112;54.088;13.446;2023-06-10T05:11:23;17.30;99.90
10143;DHT22;5112;54.088;13.446;2023-06-10T05:21:24;17.30;99.90
10143;DHT22;5112;54.088;13.446;2023-06-10T05:31:27;17.00;99.90
10143;DHT22;5112;54.088;13.446;2023-06-10T05:41:29;16.80;99.90
10143;DHT22;5112;54.088;13.446;2023-06-10T05:51:32;16.70;99.90
10143;DHT22;5112;54.088;13.446;2023-06-10T06:01:34;16.70;99.90
10143;DHT22;5112;54.088;13.446;2023-06-10T06:11:37;17.10;99.90
10143;DHT22;5112;54.088;13.446;2023-06-10T06:21:38;17.90;99.90
10143;DHT22;5112;54.088;13.446;2023-06-10T06:31:41;18.60;99.90
10143;DHT22;5112;54.088;13.446;2023-06-10T06:41:43;18.60;99.90
10143;DHT22;5112;54.088;13.446;2023-06-10T06:51:46;18.80;99.90
10143;DHT22;5112;54.088;13.446;2023-06-10T07:01:48;19.00;99.90
10143;DHT22;5112;54.088;13.446;2023-06-10T07:11:51;19.30;99.90
10143;DHT22;5112;54.088;13.446;2023-06-10T07:21:53;19.50;99.90
10143;DHT22;5112;54.088;13.446;2023-06-10T07:31:56;19.60;99.90
10143;DHT22;5112;54.088;13.446;2023-06-10T07:41:57;20.00;99.90
10143;DHT22;5112;54.088;13.446;2023-06-10T07:52:00;19.90;99.90
10143;DHT22;5112;54.088;13.446;2023-06-10T08:02:02;20.00;99.90
10143;DHT22;5112;54.088;13.446;2023-06-10T08:12:07;20.40;99.90
10143;DHT22;5112;54.088;13.446;2023-06-10T08:22:08;20.30;99.90
10143;DHT22;5112;54.088;13.446;2023-06-10T08:32:11;20.00;99.90
10143;DHT22;5112;54.088;13.446;2023-06-10T08:42:21;19.60;99.90
10143;DHT22;5112;54.088;13.446;2023-06-10T08:52:26;19.60;99.90
10143;DHT22;5112;54.088;13.446;2023-06-10T09:02:31;19.50;99.90
10143;DHT22;5112;54.088;13.446;2023-06-10T09:12:37;19.90;99.90
10143;DHT22;5112;54.088;13.446;2023-06-10T09:22:40;20.00;99.90
10143;DHT22;5112;54.088;13.446;2023-06-10T09:32:43;20.20;99.90
10143;DHT22;5112;54.088;13.446;2023-06-10T09:42:45;20.00;99.90
10143;DHT22;5112;54.088;13.446;2023-06-10T09:52:51;20.40;99.90
10143;DHT22;5112;54.088;13.446;2023-06-10T10:02:53;20.40;99.90
10143;DHT22;5112;54.088;13.446;2023-06-10T10:12:56;20.10;99.90
10143;DHT22;5112;54.088;13.446;2023-06-10T10:22:59;20.50;99.90
10143;DHT22;5112;54.088;13.446;2023-06-10T10:33:09;20.90;99.90
10143;DHT22;5112;54.088;13.446;2023-06-10T10:43:14;20.70;99.90
10143;DHT22;5112;54.088;13.446;2023-06-10T10:53:20;20.40;99.90
10143;DHT22;5112;54.088;13.446;2023-06-10T11:03:22;20.70;99.90
10143;DHT22;5112;54.088;13.446;2023-06-10T11:13:26;21.00;99.90
10143;DHT22;5112;54.088;13.446;2023-06-10T11:23:38;21.10;99.90
10143;DHT22;5112;54.088;13.446;2023-06-10T11:33:42;21.30;99.90
10143;DHT22;5112;54.088;13.446;2023-06-10T11:43:43;21.60;99.90
10143;DHT22;5112;54.088;13.446;2023-06-10T11:53:47;21.80;99.90
10143;DHT22;5112;54.088;13.446;2023-06-10T12:03:57;22.10;99.90
10143;DHT22;5112;54.088;13.446;2023-06-10T12:14:00;22.20;99.90
10143;DHT22;5112;54.088;13.446;2023-06-10T12:24:08;22.00;99.90
10143;DHT22;5112;54.088;13.446;2023-06-10T12:34:11;22.40;99.90
10143;DHT22;5112;54.088;13.446;2023-06-10T12:44:13;22.30;99.90
10143;DHT22;5112;54.088;13.446;2023-06-10T12:54:16;23.10;99.90
10143;DHT22;5112;54.088;13.446;2023-06-10T13:04:19;23.50;99.90
10143;DHT22;5112;54.088;13.446;2023-06-10T13:14:23;23.60;99.90
10143;DHT22;5112;54.088;13.446;2023-06-10T13:24:24;22.90;99.90
10143;DHT22;5112;54.088;13.446;2023-06-10T13:34:28;23.00;99.90
10143;DHT22;5112;54.088;13.446;2023-06-10T13:44:29;22.90;99.90
10143;DHT22;5112;54.088;13.446;2023-06-10T13:54:35;22.70;99.90
10143;DHT22;5112;54.088;13.446;2023-06-10T14:04:37;22.30;99.90
10143;DHT22;5112;54.088;13.446;2023-06-10T14:14:40;22.10;99.90
10143;DHT22;5112;54.088;13.446;2023-06-10T14:24:41;21.70;99.90
10143;DHT22;5112;54.088;13.446;2023-06-10T14:34:44;21.80;99.90
10143;DHT22;5112;54.088;13.446;2023-06-10T14:44:47;21.70;99.90
10143;DHT22;5112;54.088;13.446;2023-06-10T14:54:51;21.70;99.70
10143;DHT22;5112;54.088;13.446;2023-06-10T15:04:52;21.60;99.50
10143;DHT22;5112;54.088;13.446;2023-06-10T15:14:55;21.40;99.90
10143;DHT22;5112;54.088;13.446;2023-06-10T15:24:58;21.20;99.90
10143;DHT22;5112;54.088;13.446;2023-06-10T15:35:01;20.80;99.90
10143;DHT22;5112;54.088;13.446;2023-06-10T15:45:03;20.40;99.90
10143;DHT22;5112;54.088;13.446;2023-06-10T15:55:07;20.00;99.90
10143;DHT22;5112;54.088;13.446;2023-06-10T16:05:09;19.90;99.90
10143;DHT22;5112;54.088;13.446;2023-06-10T16:15:12;19.30;99.90
10143;DHT22;5112;54.088;13.446;2023-06-10T16:25:14;19.30;99.90
10143;DHT22;5112;54.088;13.446;2023-06-10T16:35:17;18.80;99.90
10143;DHT22;5112;54.088;13.446;2023-06-10T16:45:19;18.70;99.90
10143;DHT22;5112;54.088;13.446;2023-06-10T16:55:22;18.50;99.90
10143;DHT22;5112;54.088;13.446;2023-06-10T17:05:24;18.30;99.90
10143;DHT22;5112;54.088;13.446;2023-06-10T17:15:27;18.20;99.90
10143;DHT22;5112;54.088;13.446;2023-06-10T17:25:28;18.00;99.90
10143;DHT22;5112;54.088;13.446;2023-06-10T17:35:31;17.80;99.90
10143;DHT22;5112;54.088;13.446;2023-06-10T17:45:33;17.50;99.90
10143;DHT22;5112;54.088;13.446;2023-06-10T17:55:36;17.50;99.90
10143;DHT22;5112;54.088;13.446;2023-06-10T18:05:38;17.50;99.90
10143;DHT22;5112;54.088;13.446;2023-06-10T18:15:41;17.30;99.90
10143;DHT22;5112;54.088;13.446;2023-06-10T18:25:43;17.20;99.90
10143;DHT22;5112;54.088;13.446;2023-06-10T18:35:46;17.10;99.90
10143;DHT22;5112;54.088;13.446;2023-06-10T18:45:47;17.00;99.90
10143;DHT22;5112;54.088;13.446;2023-06-10T18:55:50;16.90;99.90
10143;DHT22;5112;54.088;13.446;2023-06-10T19:05:52;16.70;99.90
10143;DHT22;5112;54.088;13.446;2023-06-10T19:15:55;16.60;99.90
10143;DHT22;5112;54.088;13.446;2023-06-10T19:25:57;16.40;99.90
10143;DHT22;5112;54.088;13.446;2023-06-10T19:36:01;16.20;99.90
10143;DHT22;5112;54.088;13.446;2023-06-10T19:46:03;16.10;99.90
10143;DHT22;5112;54.088;13.446;2023-06-10T19:56:06;15.90;99.90
10143;DHT22;5112;54.088;13.446;2023-06-10T20:06:08;15.90;99.90
10143;DHT22;5112;54.088;13.446;2023-06-10T20:16:11;15.60;99.90
10143;DHT22;5112;54.088;13.446;2023-06-10T20:26:13;15.50;99.90
10143;DHT22;5112;54.088;13.446;2023-06-10T20:36:16;15.70;99.90
10143;DHT22;5112;54.088;13.446;2023-06-10T20:46:19;15.40;99.90
10143;DHT22;5112;54.088;13.446;2023-06-10T20:56:22;15.50;99.90
10143;DHT22;5112;54.088;13.446;2023-06-10T21:06:24;15.30;99.90
10143;DHT22;5112;54.088;13.446;2023-06-10T21:16:27;15.20;99.90
10143;DHT22;5112;54.088;13.446;2023-06-10T21:26:30;15.10;99.90
10143;DHT22;5112;54.088;13.446;2023-06-10T21:36:36;15.00;99.90
10143;DHT22;5112;54.088;13.446;2023-06-10T21:46:38;14.90;99.90
10143;DHT22;5112;54.088;13.446;2023-06-10T21:56:41;14.90;99.90
10143;DHT22;5112;54.088;13.446;2023-06-10T22:06:47;14.80;99.90
10143;DHT22;5112;54.088;13.446;2023-06-10T22:16:50;14.80;99.90
10143;DHT22;5112;54.088;13.446;2023-06-10T22:26:52;14.70;99.90
10143;DHT22;5112;54.088;13.446;2023-06-10T22:36:55;14.60;99.90
10143;DHT22;5112;54.088;13.446;2023-06-10T22:46:57;14.60;99.90
10143;DHT22;5112;54.088;13.446;2023-06-10T22:57:00;14.50;99.90
10143;DHT22;5112;54.088;13.446;2023-06-10T23:07:02;14.40;99.90
10143;DHT22;5112;54.088;13.446;2023-06-10T23:17:05;14.40;99.90
10143;DHT22;5112;54.088;13.446;2023-06-10T23:27:07;14.50;99.90
10143;DHT22;5112;54.088;13.446;2023-06-10T23:37:10;14.40;99.90
10143;DHT22;5112;54.088;13.446;2023-06-10T23:47:13;14.30;99.90
10143;DHT22;5112;54.088;13.446;2023-06-10T23:57:15;14.20;99.90
